Barfleur — FNIE — position and weather

sailwx.info

Track history (hours):
 
Tides and Currents Weather Stations Pressure Air Temp Water Temp Dewpoint Dewpoint Depression Visibility Wind Speed Wind Dir Waves Ship Positions

Barfleur

Operator: Brittany Ferries

Last reported at 2014-Dec-20 09:22 UTC. Time now 2014-Dec-20 20:06 UTC.
Position N 50°30' W 001°52'.

Length 158 m; draft 5 m.

Type: Passenger vessel. MMSI: 227289000.

Date/timePositionNaut miles runAvg speedWind from/ knotsBaromVisibWave heightAir tempDewpointWater temp
2014-Dec-20 09:22N 50°30' W 001°52'1315.4
2014-Dec-20 08:33N 50°42' W 001°58'1 0.1
2014-Dec-19 22:33N 50°42' W 001°59'0 0.1
2014-Dec-19 21:33N 50°42' W 001°59'1413.9
2014-Dec-19 20:33N 50°29' W 001°52'5 0.4
2014-Dec-19 09:09N 50°34' W 001°53'914.2
2014-Dec-19 08:30N 50°42' W 001°59'1 0.1
2014-Dec-18 22:33N 50°42' W 001°59'1 1.5
2014-Dec-18 21:33N 50°42' W 001°57'1615.8
2014-Dec-18 20:33N 50°26' W 001°53'8 0.7
2014-Dec-18 09:25N 50°34' W 001°53'9 0.8
2014-Dec-17 22:03N 50°42' W 001°59'2 4.2
2014-Dec-17 21:33N 50°41' W 001°57'1615.6
2014-Dec-17 20:33N 50°26' W 001°51'8 0.7
2014-Dec-17 09:11N 50°34' W 001°54'912.6
2014-Dec-17 08:27N 50°42' W 001°59'0 0.0
2014-Dec-16 22:33N 50°42' W 001°59'1 0.9
2014-Dec-16 21:33N 50°42' W 001°58'1414.5
2014-Dec-16 20:33N 50°29' W 001°51'5 0.4
2014-Dec-16 09:11N 50°33' W 001°52'914.2
2014-Dec-16 08:33N 50°42' W 001°57'2 0.2
2014-Dec-16 00:31N 50°42' W 001°59'0 0.0
2014-Dec-15 23:33N 50°42' W 001°59'0 0.0
2014-Dec-15 22:33N 50°42' W 001°59'0 0.3
2014-Dec-15 21:33N 50°42' W 001°59'1312.7
2014-Dec-15 20:33N 50°30' W 001°52'3 0.3
2014-Dec-15 09:06N 50°34' W 001°52'815.2
2014-Dec-15 08:33N 50°41' W 001°57'2 0.2
2014-Dec-14 21:33N 50°42' W 001°59'1111.5
2014-Dec-14 20:33N 50°32' W 001°52'0 0.0
2014-Dec-14 09:16N 50°32' W 001°52'1014.1
2014-Dec-14 08:33N 50°41' W 001°57'2 0.2
2014-Dec-13 22:33N 50°42' W 001°59'0 0.1
2014-Dec-13 21:33N 50°42' W 001°59'1211.8
2014-Dec-13 20:33N 50°31' W 001°52'0 0.0
2014-Dec-13 09:15N 50°31' W 001°52'1014.7
2014-Dec-13 08:33N 50°41' W 001°57'2 0.2
2014-Dec-12 22:34N 50°42' W 001°59'1 1.3
2014-Dec-12 21:34N 50°42' W 001°58'1515.1
2014-Dec-12 20:33N 50°27' W 001°51'2 0.2
2014-Dec-12 09:33N 50°28' W 001°54'1413.6
2014-Dec-12 08:34N 50°42' W 001°57'2 0.2
2014-Dec-11 22:33N 50°42' W 001°59'0 0.0
2014-Dec-11 21:33N 50°42' W 001°59'0 0.0
2014-Dec-11 20:33N 50°42' W 001°59'2 1.5
2014-Dec-11 19:33N 50°42' W 001°57'1 0.1
2014-Dec-11 08:33N 50°41' W 001°57'2 0.2
2014-Dec-10 23:04N 50°42' W 001°59'0 0.0
2014-Dec-10 22:33N 50°42' W 001°59'1 0.9
2014-Dec-10 21:33N 50°42' W 001°58'1515.1
2014-Dec-10 20:33N 50°28' W 001°51'  
Track history (hours):
 
Tides and Currents Weather Stations Pressure Air Temp Water Temp Dewpoint Dewpoint Depression Visibility Wind Speed Wind Dir Waves Ship Positions

Barfleur

Operator: Brittany Ferries

Last reported at 2014-Dec-20 09:22 UTC. Time now 2014-Dec-20 20:06 UTC.
Position N 50°30' W 001°52'.

Length 158 m; draft 5 m.

Type: Passenger vessel. MMSI: 227289000.

Date/timePositionNaut miles runAvg speedWind from/ knotsBaromVisibWave heightAir tempDewpointWater temp
2014-Dec-20 09:22N 50°30' W 001°52'1315.4
2014-Dec-20 08:33N 50°42' W 001°58'1 0.1
2014-Dec-19 22:33N 50°42' W 001°59'0 0.1
2014-Dec-19 21:33N 50°42' W 001°59'1413.9
2014-Dec-19 20:33N 50°29' W 001°52'5 0.4
2014-Dec-19 09:09N 50°34' W 001°53'914.2
2014-Dec-19 08:30N 50°42' W 001°59'1 0.1
2014-Dec-18 22:33N 50°42' W 001°59'1 1.5
2014-Dec-18 21:33N 50°42' W 001°57'1615.8
2014-Dec-18 20:33N 50°26' W 001°53'8 0.7
2014-Dec-18 09:25N 50°34' W 001°53'9 0.8
2014-Dec-17 22:03N 50°42' W 001°59'2 4.2
2014-Dec-17 21:33N 50°41' W 001°57'1615.6
2014-Dec-17 20:33N 50°26' W 001°51'8 0.7
2014-Dec-17 09:11N 50°34' W 001°54'912.6
2014-Dec-17 08:27N 50°42' W 001°59'0 0.0
2014-Dec-16 22:33N 50°42' W 001°59'1 0.9
2014-Dec-16 21:33N 50°42' W 001°58'1414.5
2014-Dec-16 20:33N 50°29' W 001°51'5 0.4
2014-Dec-16 09:11N 50°33' W 001°52'914.2
2014-Dec-16 08:33N 50°42' W 001°57'2 0.2
2014-Dec-16 00:31N 50°42' W 001°59'0 0.0
2014-Dec-15 23:33N 50°42' W 001°59'0 0.0
2014-Dec-15 22:33N 50°42' W 001°59'0 0.3
2014-Dec-15 21:33N 50°42' W 001°59'1312.7
2014-Dec-15 20:33N 50°30' W 001°52'3 0.3
2014-Dec-15 09:06N 50°34' W 001°52'815.2
2014-Dec-15 08:33N 50°41' W 001°57'2 0.2
2014-Dec-14 21:33N 50°42' W 001°59'1111.5
2014-Dec-14 20:33N 50°32' W 001°52'0 0.0
2014-Dec-14 09:16N 50°32' W 001°52'1014.1
2014-Dec-14 08:33N 50°41' W 001°57'2 0.2
2014-Dec-13 22:33N 50°42' W 001°59'0 0.1
2014-Dec-13 21:33N 50°42' W 001°59'1211.8
2014-Dec-13 20:33N 50°31' W 001°52'0 0.0
2014-Dec-13 09:15N 50°31' W 001°52'1014.7
2014-Dec-13 08:33N 50°41' W 001°57'2 0.2
2014-Dec-12 22:34N 50°42' W 001°59'1 1.3
2014-Dec-12 21:34N 50°42' W 001°58'1515.1
2014-Dec-12 20:33N 50°27' W 001°51'2 0.2
2014-Dec-12 09:33N 50°28' W 001°54'1413.6
2014-Dec-12 08:34N 50°42' W 001°57'2 0.2
2014-Dec-11 22:33N 50°42' W 001°59'0 0.0
2014-Dec-11 21:33N 50°42' W 001°59'0 0.0
2014-Dec-11 20:33N 50°42' W 001°59'2 1.5
2014-Dec-11 19:33N 50°42' W 001°57'1 0.1
2014-Dec-11 08:33N 50°41' W 001°57'2 0.2
2014-Dec-10 23:04N 50°42' W 001°59'0 0.0
2014-Dec-10 22:33N 50°42' W 001°59'1 0.9
2014-Dec-10 21:33N 50°42' W 001°58'1515.1
2014-Dec-10 20:33N 50°28' W 001°51'  

Dump ship's entire track history